Soleil Weather Down

Nearby METAR Reports

 

KCNI - Canton/Cherokee, Georgia, USA
Distance from station: ENE 6mi, 10km
Updated: Sat, 31-Jul-2021 10:15am EDT
Clear
Clear
 Wind from calm
Wind: Calm
Barometer: 30.05 inHg , 1017.6 hPa
Clouds: Clear
Visibility: 10 miles , 16 km
2021/07/31 14:15 KCNI 311415Z AUTO 00000KT 10SM CLR A3005 RMK AO2
KRYY - Marietta Mccolum, Georgia, USA
Distance from station: SSW 18mi, 29km
Updated: Sat, 31-Jul-2021 9:50am EDT
Clear
Clear
 Wind from WNW
Wind: WNW 5 mph , 7 km/h
Temperature: 79°F , 26°C
Dew Point: 73°F , 23°C
Humidity: 84%
Barometer: 30.05 inHg , 1017.6 hPa
Clouds: Clear
Visibility: 7 miles , 11 km
2021/07/31 13:50 KRYY 311350Z 30004KT 7SM CLR 26/23 A3005 RMK AO2 SLP164 T02610233 PNO $
KVPC - Cartersville, Georgia, USA
Distance from station: WSW 22mi, 35km
Updated: Sat, 31-Jul-2021 10:15am EDT
Overcast
Overcast
 Wind from WNW
Wind: WNW 5 mph , 7 km/h
Temperature: 77°F , 25°C
Dew Point: 75°F , 24°C
Humidity: 94%
Barometer: 30.04 inHg , 1017.3 hPa
Clouds: Overcast
Visibility: 9 miles , 14 km
Cloud details: Overcast 700 ft
2021/07/31 14:15 KVPC 311415Z AUTO 29004KT 9SM OVC007 25/24 A3004 RMK AO2
 
KMGE - Dobbins Afb/Mari, Georgia, USA
Distance from station: S 24mi, 39km
Updated: Sat, 31-Jul-2021 9:56am EDT
Partly cloudy
Partly cloudy
 Wind from NW
Wind: NW 6 mph , 9 km/h
Temperature: 82°F , 28°C
Heat Index: 87°F , 31°C
Dew Point: 73°F , 23°C
Humidity: 74%
Barometer: 30.03 inHg , 1016.9 hPa
Clouds: Partly cloudy
Visibility: 10 miles , 16 km
Cloud details: Few Clouds 4000 ft
Few Clouds 12000 ft
Partly cloudy 25000 ft
2021/07/31 13:56 KMGE 311356Z 32005KT 10SM FEW040 FEW120 SCT250 28/23 A3003 RMK AO2A SLP159 T02750229 $
KPDK - Peachtree/Dekalb, Georgia, USA
Distance from station: SSE 29mi, 47km
Updated: Sat, 31-Jul-2021 9:53am EDT
Clear
Clear
 Wind from NW
Wind: NW 5 mph , 7 km/h
Temperature: 81°F , 27°C
Heat Index: 86°F , 30°C
Dew Point: 73°F , 23°C
Humidity: 79%
Barometer: 30.03 inHg , 1016.9 hPa
Clouds: Clear
Visibility: 10 miles , 16 km
2021/07/31 13:53 KPDK 311353Z 31004KT 10SM CLR 27/23 A3003 RMK AO2 SLP148 T02720228
KFTY - Atlanta/Fulton, Georgia, USA
Distance from station: S 34mi, 54km
Updated: Sat, 31-Jul-2021 9:53am EDT
Clear
Clear
 Wind from WNW
Wind: WNW 5 mph , 7 km/h
Temperature: 82°F , 28°C
Heat Index: 87°F , 31°C
Dew Point: 73°F , 23°C
Humidity: 74%
Barometer: 30.02 inHg , 1016.6 hPa
Clouds: Clear
Visibility: 10 miles , 16 km
2021/07/31 13:53 KFTY 311353Z 30004KT 10SM CLR 28/23 A3002 RMK AO2 SLP156 T02780233
 
KPUJ - Atlanta/Paulding, Georgia, USA
Distance from station: SW 34mi, 55km
Updated: Sat, 31-Jul-2021 10:15am EDT
Partly cloudy
Partly cloudy
 Wind from NW
Wind: NW 6 mph , 9 km/h
Temperature: 77°F , 25°C
Dew Point: 77°F , 25°C
Humidity: 100%
Barometer: 30.05 inHg , 1017.6 hPa
Clouds: Partly cloudy
Visibility: 10 miles , 16 km
Cloud details: Partly cloudy 800 ft
2021/07/31 14:15 KPUJ 311415Z AUTO 32005KT 10SM SCT008 25/25 A3005 RMK AO2
KDNN - Dalton, Georgia, USA
Distance from station: NW 37mi, 59km
Updated: Sat, 31-Jul-2021 10:15am EDT
Partly cloudy
Partly cloudy
 Wind from calm
Wind: Calm
Temperature: 79°F , 26°C
Dew Point: 73°F , 23°C
Humidity: 84%
Barometer: 30.05 inHg , 1017.6 hPa
Clouds: Partly cloudy
Visibility: 10 miles , 16 km
Cloud details: Partly cloudy 500 ft
2021/07/31 14:15 KDNN 311415Z AUTO 00000KT 10SM SCT005 26/23 A3005 RMK AO2
KLZU - Lawrenceville, Georgia, USA
Distance from station: ESE 37mi, 59km
Updated: Sat, 31-Jul-2021 9:56am EDT
Clear
Clear
 Wind from calm
Wind: Calm
Temperature: 84°F , 29°C
Heat Index: 92°F , 33°C
Dew Point: 75°F , 24°C
Humidity: 74%
Barometer: 30.03 inHg , 1016.9 hPa
Clouds: Clear
Visibility: 10 miles , 16 km
2021/07/31 13:56 KLZU 311356Z 00000KT 10SM CLR 29/24 A3003 RMK AO2 SLP166 T02940239
 
KRMG - Rome, Georgia, USA
Distance from station: W 38mi, 61km
Updated: Sat, 31-Jul-2021 9:53am EDT
Clear
Clear
 Wind from varies
Wind: varies 3 mph , 6 km/h
Temperature: 81°F , 27°C
Heat Index: 86°F , 30°C
Dew Point: 73°F , 23°C
Humidity: 79%
Barometer: 30.03 inHg , 1016.9 hPa
Clouds: Clear
Visibility: 9 miles , 14 km
2021/07/31 13:53 KRMG 311353Z AUTO VRB03KT 9SM CLR 27/23 A3003 RMK AO2 SLP156 T02670228
KGVL - Gainesville, Georgia, USA
Distance from station: E 39mi, 62km
Updated: Sat, 31-Jul-2021 9:53am EDT
Clear
Clear
 Wind from NNW
Wind: NNW 5 mph , 7 km/h
Temperature: 84°F , 29°C
Heat Index: 89°F , 32°C
Dew Point: 72°F , 22°C
Humidity: 66%
Barometer: 30.06 inHg , 1017.9 hPa
Clouds: Clear
Visibility: 10 miles , 16 km
2021/07/31 13:53 KGVL 311353Z AUTO 34004KT 10SM CLR 29/22 A3006 RMK AO2 SLP158 T02890222
KATL - Atlanta, Georgia, USA
Distance from station: S 44mi, 71km
Updated: Sat, 31-Jul-2021 9:52am EDT
Few Clouds
Few Clouds
 Wind from NW
Wind: NW 5 mph , 7 km/h
Temperature: 82°F , 28°C
Heat Index: 87°F , 31°C
Dew Point: 73°F , 23°C
Humidity: 74%
Barometer: 30.03 inHg , 1016.9 hPa
Clouds: Few Clouds
Visibility: 10 miles , 16 km
Cloud details: Few Clouds 20000 ft
Few Clouds 25000 ft
2021/07/31 13:52 KATL 311352Z 32004KT 10SM FEW200 FEW250 28/23 A3003 RMK AO2 SLP156 T02780228